Terminal Aerodrome Forecast
Issued by NWS

Home | Current Version | Previous Version | Graphics & Text | Print | Product List | Glossary On
Versions: 1 2 3 4 5 6 7 8 9 10 11 12 13 14 15 16 17 18 19 20 21 22 23 24
000
FTUS43 KGRB 191736
TAFAUW
TAF
KAUW 191736Z 1918/2018 15005KT 1/4SM FG BKN003
     FM192100 17004KT 1SM BR OVC003
     FM200000 VRB03KT 1/2SM -RA FG OVC003
     FM200800 10003KT 1/4SM -FZRAPL FZFG OVC003
     FM200900 10002KT 1SM -RA BR OVC003
     FM201700 10004KT 2SM -RA BR OVC003=

USA.gov is the U.S. government's official web portal to all federal, state and local government web resources and services.